createdAt,value
2022-08-02T00:02:17.640Z,99.90
2022-08-02T00:04:44.313Z,99.90
2022-08-02T00:07:11.013Z,99.90
2022-08-02T00:09:37.778Z,99.90
2022-08-02T00:12:04.613Z,99.90
2022-08-02T00:14:31.294Z,99.90
2022-08-02T00:16:58.062Z,99.90
2022-08-02T00:19:24.736Z,99.90
2022-08-02T00:21:51.514Z,99.90
2022-08-02T00:24:28.700Z,99.90
2022-08-02T00:26:57.028Z,99.90
2022-08-02T00:29:23.698Z,99.90
2022-08-02T00:31:50.429Z,99.90
2022-08-02T00:34:28.935Z,99.90
2022-08-02T00:36:58.190Z,99.90
2022-08-02T00:46:56.263Z,99.90
2022-08-02T00:49:23.044Z,99.90
2022-08-02T00:51:51.193Z,99.90
2022-08-02T00:54:19.747Z,99.90
2022-08-02T00:56:50.134Z,99.90
2022-08-02T00:59:18.212Z,99.90
2022-08-02T01:01:56.558Z,99.90
2022-08-02T01:04:26.702Z,99.90
2022-08-02T01:06:59.161Z,99.90
2022-08-02T01:09:25.953Z,99.90
2022-08-02T01:11:52.656Z,99.90
2022-08-02T01:14:19.623Z,99.90
2022-08-02T01:16:48.238Z,99.90
2022-08-02T01:19:30.817Z,99.90
2022-08-02T01:21:57.456Z,99.90
2022-08-02T01:24:30.425Z,99.90
2022-08-02T01:27:11.046Z,99.90
2022-08-02T01:29:39.525Z,99.90
2022-08-02T01:32:15.176Z,99.90
2022-08-02T01:34:53.550Z,99.90
2022-08-02T01:37:23.226Z,99.90
2022-08-02T01:39:54.612Z,99.90
2022-08-02T01:42:22.510Z,99.90
2022-08-02T01:44:50.882Z,99.90
2022-08-02T01:52:21.520Z,99.90
2022-08-02T01:54:54.246Z,99.90
2022-08-02T01:57:21.783Z,99.90
2022-08-02T01:59:49.645Z,99.90
2022-08-02T02:02:17.125Z,99.90
2022-08-02T02:04:45.107Z,99.90
2022-08-02T02:07:13.005Z,99.90
2022-08-02T02:09:50.438Z,99.90
2022-08-02T02:12:18.440Z,99.90
2022-08-02T02:14:51.544Z,99.90
2022-08-02T02:18:11.473Z,99.90
2022-08-02T02:23:36.102Z,99.90
2022-08-02T02:26:05.258Z,99.90
2022-08-02T02:28:35.175Z,99.90
2022-08-02T02:31:09.754Z,99.90
2022-08-02T02:33:39.432Z,99.90
2022-08-02T02:36:07.900Z,99.90
2022-08-02T02:38:35.969Z,99.90
2022-08-02T02:41:04.235Z,99.90
2022-08-02T02:43:31.572Z,99.90
2022-08-02T02:45:58.751Z,99.90
2022-08-02T02:48:26.520Z,99.90
2022-08-02T02:50:54.047Z,99.90
2022-08-02T02:53:21.204Z,99.90
2022-08-02T03:01:14.641Z,99.90
2022-08-02T03:03:43.129Z,99.90
2022-08-02T04:00:41.132Z,99.90
2022-08-02T04:03:07.827Z,99.90
2022-08-02T04:05:37.675Z,99.90
2022-08-02T04:08:35.949Z,99.90
2022-08-02T04:11:23.108Z,99.90
2022-08-02T04:13:49.888Z,99.90
2022-08-02T04:16:23.732Z,99.90
2022-08-02T04:18:54.065Z,99.90
2022-08-02T04:21:21.385Z,99.90
2022-08-02T04:23:48.929Z,99.90
2022-08-02T04:26:16.297Z,99.90
2022-08-02T04:31:10.535Z,99.90
2022-08-02T04:33:38.063Z,99.90
2022-08-02T04:38:31.912Z,99.90
2022-08-02T04:55:41.176Z,99.90
2022-08-02T04:58:37.059Z,99.90
2022-08-02T05:03:21.577Z,99.90
2022-08-02T05:05:48.440Z,99.90
2022-08-02T05:08:15.114Z,99.90
2022-08-02T05:10:41.812Z,99.90
2022-08-02T05:13:08.473Z,99.90
2022-08-02T06:29:56.345Z,99.90
2022-08-02T06:32:23.306Z,99.90
2022-08-02T06:34:49.931Z,99.90
2022-08-02T06:37:24.028Z,99.90
2022-08-02T06:42:24.166Z,99.90
2022-08-02T06:44:57.683Z,99.90
2022-08-02T06:47:25.141Z,99.90
2022-08-02T06:49:54.262Z,99.90
2022-08-02T06:54:53.730Z,99.90
2022-08-02T06:59:47.439Z,99.90
2022-08-02T07:02:14.327Z,99.90
2022-08-02T07:04:41.082Z,99.90
2022-08-02T07:09:34.848Z,99.90
2022-08-02T07:12:01.791Z,99.90
2022-08-02T07:14:28.431Z,99.90
2022-08-02T07:16:55.079Z,99.90
2022-08-02T07:19:21.755Z,99.90
2022-08-02T07:24:28.475Z,99.90
2022-08-02T07:27:10.350Z,99.90
2022-08-02T07:29:46.328Z,99.90
2022-08-02T07:32:21.176Z,99.90
2022-08-02T07:34:52.706Z,99.90
2022-08-02T07:37:35.848Z,99.90
2022-08-02T07:40:14.166Z,99.90
2022-08-02T07:42:45.207Z,99.90
2022-08-02T07:45:12.636Z,99.90
2022-08-02T07:50:07.052Z,99.90
2022-08-02T07:52:33.866Z,99.90
2022-08-02T07:55:00.598Z,99.90
2022-08-02T07:57:27.286Z,99.90
2022-08-02T07:59:53.946Z,99.90
2022-08-02T08:02:20.600Z,99.90
2022-08-02T08:04:47.274Z,99.90
2022-08-02T08:07:13.941Z,99.90
2022-08-02T08:09:42.091Z,99.90
2022-08-02T08:12:09.555Z,99.90
2022-08-02T08:14:36.950Z,99.90
2022-08-02T08:17:04.126Z,99.90
2022-08-02T08:19:51.222Z,99.90
2022-08-02T08:29:42.418Z,99.90
2022-08-02T08:34:41.095Z,99.90
2022-08-02T08:37:07.854Z,99.90
2022-08-02T08:42:02.325Z,99.90
2022-08-02T08:49:31.346Z,99.90
2022-08-02T08:54:28.091Z,99.90
2022-08-02T08:56:55.419Z,99.90
2022-08-02T08:59:22.153Z,99.90
2022-08-02T09:01:50.993Z,99.90
2022-08-02T09:04:19.391Z,99.90
2022-08-02T09:06:46.102Z,99.90
2022-08-02T09:09:12.734Z,99.90
2022-08-02T09:14:06.612Z,99.90
2022-08-02T09:16:37.385Z,99.90
2022-08-02T09:21:35.701Z,99.90
2022-08-02T09:29:00.485Z,99.90
2022-08-02T09:31:27.551Z,99.90
2022-08-02T09:33:58.577Z,99.90
2022-08-02T09:36:25.940Z,99.90
2022-08-02T09:39:01.460Z,99.90
2022-08-02T09:41:29.104Z,99.90
2022-08-02T09:44:05.589Z,99.90
2022-08-02T09:49:01.301Z,99.90
2022-08-02T09:51:29.210Z,99.90
2022-08-02T09:54:08.387Z,99.90
2022-08-02T09:56:46.898Z,99.90
2022-08-02T09:59:15.094Z,99.90
2022-08-02T10:01:50.567Z,99.90
2022-08-02T10:04:23.884Z,99.90
2022-08-02T10:06:54.589Z,99.90
2022-08-02T10:09:21.877Z,99.90
2022-08-02T10:11:49.075Z,99.90
2022-08-02T10:14:15.916Z,99.90
2022-08-02T10:16:43.994Z,99.90
2022-08-02T10:19:11.115Z,99.90
2022-08-02T10:21:52.661Z,99.90
2022-08-02T10:24:21.704Z,99.90
2022-08-02T10:26:48.737Z,99.90
2022-08-02T10:29:16.551Z,99.90
2022-08-02T10:31:54.096Z,99.90
2022-08-02T10:34:23.213Z,99.90
2022-08-02T10:36:50.883Z,99.90
2022-08-02T10:39:17.604Z,99.90
2022-08-02T10:41:46.221Z,99.90
2022-08-02T10:44:27.269Z,99.90
2022-08-02T10:47:15.094Z,99.90
2022-08-02T10:49:56.100Z,99.90
2022-08-02T10:52:41.036Z,99.90
2022-08-02T10:55:14.544Z,99.90
2022-08-02T10:57:41.689Z,99.90
2022-08-02T11:00:24.563Z,99.90
2022-08-02T11:02:53.582Z,99.90
2022-08-02T11:05:42.971Z,99.90
2022-08-02T11:08:20.618Z,99.90
2022-08-02T11:10:47.697Z,99.90
2022-08-02T11:13:15.565Z,99.90
2022-08-02T11:15:53.369Z,99.90
2022-08-02T11:18:20.913Z,99.90
2022-08-02T11:20:47.755Z,99.90
2022-08-02T11:23:45.108Z,99.90
2022-08-02T11:31:07.397Z,99.90
2022-08-02T11:33:34.352Z,99.90
2022-08-02T11:36:02.369Z,99.90
2022-08-02T11:38:29.335Z,99.90
2022-08-02T11:40:57.195Z,99.90
2022-08-02T11:43:26.961Z,99.90
2022-08-02T11:45:55.460Z,99.90
2022-08-02T11:48:32.239Z,99.90
2022-08-02T11:51:03.081Z,99.90
2022-08-02T11:53:29.745Z,99.90
2022-08-02T11:55:57.168Z,99.90
2022-08-02T11:58:23.800Z,99.90
2022-08-02T12:00:50.463Z,99.90
2022-08-02T12:03:19.759Z,99.90
2022-08-02T12:06:04.945Z,99.90
2022-08-02T12:08:33.627Z,99.90
2022-08-02T12:11:01.542Z,99.90
2022-08-02T12:13:28.394Z,99.90
2022-08-02T12:16:15.055Z,99.80
2022-08-02T12:21:27.570Z,99.20
2022-08-02T12:24:00.093Z,98.20
2022-08-02T12:26:28.503Z,96.70
2022-08-02T12:28:56.428Z,97.00
2022-08-02T12:33:51.341Z,94.40
2022-08-02T12:36:18.770Z,99.70
2022-08-02T12:38:55.523Z,99.90
2022-08-02T12:41:31.032Z,99.90
2022-08-02T12:43:58.891Z,95.40
2022-08-02T12:46:25.556Z,95.20
2022-08-02T12:49:15.865Z,93.80
2022-08-02T12:51:56.902Z,93.30
2022-08-02T12:54:31.016Z,92.30
2022-08-02T12:57:10.850Z,92.00
2022-08-02T12:59:39.660Z,93.00
2022-08-02T13:02:08.571Z,92.40
2022-08-02T13:04:35.462Z,93.10
2022-08-02T13:07:02.243Z,92.70
2022-08-02T13:09:29.475Z,89.00
2022-08-02T13:12:03.886Z,90.20
2022-08-02T13:14:30.606Z,88.00
2022-08-02T13:16:57.294Z,90.10
2022-08-02T13:19:23.999Z,89.00
2022-08-02T13:22:01.396Z,87.50
2022-08-02T13:24:41.208Z,88.60
2022-08-02T13:29:44.108Z,85.50
2022-08-02T13:32:11.055Z,84.60
2022-08-02T13:39:32.129Z,80.60
2022-08-02T13:41:58.836Z,82.50
2022-08-02T13:44:25.462Z,81.20
2022-08-02T13:46:52.200Z,82.00
2022-08-02T13:49:21.794Z,81.60
2022-08-02T13:52:06.546Z,77.20
2022-08-02T13:54:33.367Z,77.80
2022-08-02T13:57:00.418Z,75.10
2022-08-02T14:02:14.411Z,71.30
2022-08-02T14:04:45.182Z,84.30
2022-08-02T14:07:12.022Z,75.60
2022-08-02T14:09:38.794Z,72.10
2022-08-02T14:12:07.702Z,77.00
2022-08-02T14:14:34.499Z,77.90
2022-08-02T14:17:01.809Z,77.60
2022-08-02T14:19:28.748Z,73.20
2022-08-02T14:22:10.544Z,72.90
2022-08-02T14:24:39.441Z,75.50
2022-08-02T14:27:06.190Z,74.50
2022-08-02T14:29:33.110Z,71.90
2022-08-02T14:31:59.887Z,69.70
2022-08-02T14:34:27.003Z,71.70
2022-08-02T14:36:54.251Z,70.70
2022-08-02T14:39:21.531Z,68.40
2022-08-02T14:44:27.086Z,70.90
2022-08-02T14:46:53.967Z,71.50
2022-08-02T14:49:25.374Z,69.60
2022-08-02T14:51:56.479Z,70.00
2022-08-02T14:54:27.835Z,68.40
2022-08-02T14:57:01.885Z,70.40
2022-08-02T15:01:55.754Z,66.30
2022-08-02T15:04:22.542Z,66.20
2022-08-02T15:06:49.200Z,67.10
2022-08-02T15:09:15.860Z,65.20
2022-08-02T15:11:47.639Z,65.60
2022-08-02T15:14:22.195Z,66.00
2022-08-02T15:16:57.044Z,66.00
2022-08-02T15:19:36.112Z,63.50
2022-08-02T15:22:14.361Z,66.70
2022-08-02T15:24:43.112Z,66.90
2022-08-02T15:27:13.582Z,65.90
2022-08-02T15:29:40.872Z,66.10
2022-08-02T15:32:07.616Z,65.80
2022-08-02T15:34:34.288Z,68.30
2022-08-02T15:37:01.105Z,66.90
2022-08-02T15:39:27.726Z,68.00
2022-08-02T15:41:54.397Z,66.60
2022-08-02T15:44:21.060Z,65.10
2022-08-02T15:46:47.750Z,65.10
2022-08-02T15:49:14.442Z,63.90
2022-08-02T15:51:41.181Z,63.00
2022-08-02T15:54:07.818Z,61.40
2022-08-02T15:56:34.484Z,62.50
2022-08-02T15:59:01.148Z,62.30
2022-08-02T16:01:37.013Z,62.60
2022-08-02T16:04:06.289Z,63.90
2022-08-02T16:06:33.331Z,62.50
2022-08-02T16:09:00.004Z,64.90
2022-08-02T16:11:27.243Z,63.60
2022-08-02T16:13:54.604Z,62.00
2022-08-02T16:16:22.635Z,64.70
2022-08-02T16:18:49.475Z,64.00
2022-08-02T16:23:58.875Z,62.30
2022-08-02T16:26:34.245Z,64.90
2022-08-02T16:29:01.932Z,64.00
2022-08-02T16:31:28.667Z,64.30
2022-08-02T16:33:57.167Z,64.30
2022-08-02T16:36:24.921Z,63.70
2022-08-02T16:38:52.465Z,67.60
2022-08-02T16:41:19.269Z,66.70
2022-08-02T16:43:45.969Z,67.10
2022-08-02T16:46:12.615Z,67.00
2022-08-02T16:48:39.385Z,67.80
2022-08-02T16:51:14.083Z,67.70
2022-08-02T16:53:59.371Z,67.00
2022-08-02T16:56:28.193Z,70.40
2022-08-02T16:58:55.152Z,73.70
2022-08-02T17:01:27.297Z,74.30
2022-08-02T17:03:56.048Z,70.70
2022-08-02T17:06:26.357Z,72.80
2022-08-02T17:08:56.331Z,73.50
2022-08-02T17:11:23.854Z,73.10
2022-08-02T17:13:51.557Z,74.00
2022-08-02T17:16:20.892Z,73.80
2022-08-02T17:18:53.162Z,74.60
2022-08-02T17:21:19.937Z,76.30
2022-08-02T17:24:05.709Z,78.20
2022-08-02T17:26:33.599Z,78.00
2022-08-02T17:29:15.454Z,78.40
2022-08-02T17:32:05.611Z,80.20
2022-08-02T17:34:31.613Z,81.50
2022-08-02T17:36:58.276Z,82.80
2022-08-02T17:39:24.908Z,82.30
2022-08-02T17:42:01.458Z,81.70
2022-08-02T17:47:16.391Z,78.90
2022-08-02T17:49:48.491Z,79.20
2022-08-02T17:52:52.356Z,80.70
2022-08-02T17:55:03.768Z,82.10
2022-08-02T17:57:55.682Z,82.30
2022-08-02T18:00:17.422Z,84.10
2022-08-02T18:02:44.085Z,84.10
2022-08-02T18:05:20.275Z,84.70
2022-08-02T18:07:50.186Z,87.00
2022-08-02T18:10:20.034Z,98.60
2022-08-02T18:15:14.394Z,97.30
2022-08-02T18:17:42.006Z,96.50
2022-08-02T18:20:11.107Z,98.50
2022-08-02T18:25:09.320Z,99.90
2022-08-02T18:30:07.908Z,91.70
2022-08-02T18:33:55.464Z,92.20
2022-08-02T18:35:21.634Z,92.60
2022-08-02T18:37:56.694Z,99.90
2022-08-02T18:40:27.554Z,95.10
2022-08-02T18:45:21.689Z,95.50
2022-08-02T18:50:17.715Z,96.10
2022-08-02T18:52:44.762Z,96.60
2022-08-02T18:55:17.524Z,96.90
2022-08-02T19:00:51.811Z,96.90
2022-08-02T19:03:21.143Z,97.30
2022-08-02T19:05:53.302Z,98.10
2022-08-02T19:10:53.431Z,99.90
2022-08-02T19:13:23.326Z,99.90
2022-08-02T19:15:50.146Z,99.90
2022-08-02T19:23:15.289Z,99.90
2022-08-02T19:36:07.405Z,99.90
2022-08-02T19:44:24.372Z,99.90
2022-08-02T19:46:15.932Z,99.90
2022-08-02T19:48:42.961Z,99.90
2022-08-02T19:51:12.983Z,99.90
2022-08-02T19:53:47.135Z,99.90
2022-08-02T19:56:21.570Z,99.90
2022-08-02T19:58:54.040Z,99.90
2022-08-02T20:01:28.229Z,99.90
2022-08-02T20:04:04.475Z,99.90
2022-08-02T20:08:59.126Z,99.90
2022-08-02T20:13:53.450Z,99.90
2022-08-02T20:18:54.340Z,99.90
2022-08-02T20:21:34.481Z,99.90
2022-08-02T20:24:03.763Z,99.90
2022-08-02T20:26:30.549Z,99.90
2022-08-02T20:31:29.017Z,99.90
2022-08-02T20:33:56.875Z,99.90
2022-08-02T20:36:25.023Z,99.90
2022-08-02T20:38:51.772Z,99.90
2022-08-02T20:41:21.513Z,99.90
2022-08-02T20:43:48.823Z,99.90
2022-08-02T20:48:44.921Z,99.90
2022-08-02T20:53:54.480Z,99.90
2022-08-02T20:56:21.767Z,99.90
2022-08-02T21:01:21.247Z,99.90
2022-08-02T21:03:58.488Z,99.90
2022-08-02T21:11:25.632Z,99.90
2022-08-02T21:14:07.252Z,99.90
2022-08-02T21:16:35.056Z,99.90
2022-08-02T21:19:01.972Z,99.90
2022-08-02T21:21:29.710Z,99.90
2022-08-02T21:23:56.846Z,99.90
2022-08-02T21:26:28.001Z,99.90
2022-08-02T21:28:55.476Z,99.90
2022-08-02T21:31:22.298Z,99.90
2022-08-02T21:33:57.803Z,99.90
2022-08-02T21:36:30.783Z,99.90
2022-08-02T21:54:18.885Z,99.90
2022-08-02T21:56:42.467Z,99.90
2022-08-02T21:59:16.185Z,99.90
2022-08-02T22:04:30.404Z,99.90
2022-08-02T22:06:57.483Z,99.90
2022-08-02T22:42:36.198Z,99.90
2022-08-02T22:45:07.092Z,99.90
2022-08-02T22:50:20.552Z,99.90
2022-08-02T22:52:50.396Z,99.90
2022-08-02T22:55:17.448Z,99.90
2022-08-02T22:57:56.611Z,99.90
2022-08-02T22:58:46.370Z,97.20
2022-08-02T22:58:49.821Z,82.00
2022-08-02T22:59:09.877Z,99.90
2022-08-02T23:00:24.659Z,99.90
2022-08-02T23:02:51.373Z,99.90
2022-08-02T23:05:18.085Z,99.90
2022-08-02T23:12:38.825Z,99.90
2022-08-02T23:15:05.793Z,99.90
2022-08-02T23:17:52.786Z,99.90
2022-08-02T23:20:19.856Z,99.90
2022-08-02T23:22:46.539Z,99.90
2022-08-02T23:25:14.503Z,99.90
2022-08-02T23:30:16.644Z,99.90
2022-08-02T23:32:43.275Z,99.90
2022-08-02T23:37:59.081Z,99.90
2022-08-02T23:40:31.498Z,99.90
2022-08-02T23:43:14.482Z,99.90
2022-08-02T23:45:46.236Z,99.90
2022-08-02T23:48:13.303Z,99.90
2022-08-02T23:50:40.048Z,99.90
2022-08-02T23:53:06.737Z,99.90
2022-08-02T23:55:33.403Z,99.90
2022-08-02T23:58:00.240Z,99.90
